createdAt,value
2022-10-09T00:01:16.221Z,88.75
2022-10-09T00:03:45.024Z,89.18
2022-10-09T00:06:14.215Z,88.75
2022-10-09T00:08:43.719Z,88.85
2022-10-09T00:11:16.846Z,88.88
2022-10-09T00:13:43.979Z,88.61
2022-10-09T00:16:12.615Z,89.40
2022-10-09T00:18:39.275Z,89.67
2022-10-09T00:21:06.060Z,89.75
2022-10-09T00:23:32.683Z,89.98
2022-10-09T00:26:01.604Z,89.99
2022-10-09T00:28:34.235Z,89.63
2022-10-09T00:31:10.923Z,89.80
2022-10-09T00:33:38.095Z,90.24
2022-10-09T00:36:07.652Z,90.61
2022-10-09T00:38:34.165Z,90.46
2022-10-09T00:41:00.730Z,90.90
2022-10-09T00:43:40.625Z,90.41
2022-10-09T00:46:18.729Z,90.01
2022-10-09T00:48:47.040Z,89.94
2022-10-09T00:51:13.604Z,89.65
2022-10-09T00:53:39.943Z,89.58
2022-10-09T00:56:06.593Z,89.38
2022-10-09T00:58:33.086Z,89.10
2022-10-09T01:00:59.483Z,90.66
2022-10-09T01:03:25.907Z,90.57
2022-10-09T01:06:19.602Z,91.66
2022-10-09T01:08:57.820Z,91.94
2022-10-09T01:11:32.542Z,91.79
2022-10-09T01:14:29.412Z,91.28
2022-10-09T01:17:19.351Z,90.50
2022-10-09T01:20:03.540Z,90.15
2022-10-09T01:22:50.367Z,89.50
2022-10-09T01:25:32.229Z,89.64
2022-10-09T01:27:59.903Z,89.99
2022-10-09T01:30:26.546Z,90.29
2022-10-09T01:32:54.942Z,90.55
2022-10-09T01:35:22.860Z,90.51
2022-10-09T01:37:52.212Z,91.25
2022-10-09T01:40:19.616Z,90.87
2022-10-09T01:42:48.842Z,90.70
2022-10-09T01:45:15.901Z,90.65
2022-10-09T01:47:42.988Z,92.12
2022-10-09T01:50:09.743Z,91.56
2022-10-09T01:52:48.475Z,90.77
2022-10-09T01:55:42.172Z,91.51
2022-10-09T01:58:28.326Z,91.28
2022-10-09T02:01:04.600Z,90.54
2022-10-09T02:03:32.812Z,90.53
2022-10-09T02:06:01.904Z,91.17
2022-10-09T02:08:30.510Z,91.46
2022-10-09T02:11:01.568Z,91.29
2022-10-09T02:13:28.907Z,90.67
2022-10-09T02:16:00.467Z,90.90
2022-10-09T02:18:37.290Z,91.26
2022-10-09T02:21:11.769Z,91.81
2022-10-09T02:23:40.071Z,91.25
2022-10-09T02:26:07.252Z,91.71
2022-10-09T02:28:33.759Z,92.97
2022-10-09T02:31:17.265Z,91.80
2022-10-09T02:33:43.762Z,92.08
2022-10-09T02:36:10.407Z,91.94
2022-10-09T02:38:36.837Z,91.45
2022-10-09T02:41:03.436Z,91.69
2022-10-09T02:43:29.801Z,92.50
2022-10-09T02:45:56.235Z,93.25
2022-10-09T02:48:22.626Z,93.42
2022-10-09T02:50:49.015Z,94.66
2022-10-09T02:53:15.460Z,94.25
2022-10-09T02:55:41.843Z,93.68
2022-10-09T02:58:08.166Z,94.27
2022-10-09T03:00:34.492Z,94.10
2022-10-09T03:03:00.885Z,93.72
2022-10-09T03:05:27.268Z,93.54
2022-10-09T03:07:53.595Z,93.99
2022-10-09T03:10:21.065Z,94.35
2022-10-09T03:12:48.180Z,94.36
2022-10-09T03:15:15.983Z,94.38
2022-10-09T03:17:42.343Z,94.62
2022-10-09T03:20:09.705Z,94.72
2022-10-09T03:22:36.057Z,94.38
2022-10-09T03:25:02.422Z,94.03
2022-10-09T03:27:30.744Z,93.86
2022-10-09T03:29:58.508Z,93.63
2022-10-09T03:32:25.725Z,92.72
2022-10-09T03:34:52.310Z,93.11
2022-10-09T03:37:18.653Z,92.82
2022-10-09T03:39:45.005Z,92.69
2022-10-09T03:42:11.339Z,93.56
2022-10-09T03:44:37.704Z,93.13
2022-10-09T03:47:04.194Z,92.96
2022-10-09T03:49:30.583Z,93.28
2022-10-09T03:51:56.988Z,93.31
2022-10-09T03:54:23.429Z,93.44
2022-10-09T03:56:49.747Z,93.84
2022-10-09T03:59:16.103Z,92.51
2022-10-09T04:01:42.514Z,92.63
2022-10-09T04:04:08.858Z,92.83
2022-10-09T04:06:35.264Z,92.65
2022-10-09T04:09:01.580Z,92.67
2022-10-09T04:11:27.947Z,92.92
2022-10-09T04:13:54.324Z,92.57
2022-10-09T04:16:20.979Z,92.73
2022-10-09T04:18:47.909Z,92.19
2022-10-09T04:21:14.442Z,92.35
2022-10-09T04:23:40.884Z,92.60
2022-10-09T04:26:07.256Z,93.01
2022-10-09T04:28:34.776Z,92.69
2022-10-09T04:31:01.394Z,92.58
2022-10-09T04:33:27.878Z,92.93
2022-10-09T04:35:55.740Z,93.00
2022-10-09T04:38:23.580Z,92.92
2022-10-09T04:41:00.614Z,92.90
2022-10-09T04:43:27.654Z,93.35
2022-10-09T04:45:55.361Z,92.88
2022-10-09T04:48:22.376Z,93.29
2022-10-09T04:50:48.964Z,93.07
2022-10-09T04:53:15.366Z,93.01
2022-10-09T04:55:43.030Z,92.69
2022-10-09T04:58:11.107Z,93.15
2022-10-09T05:00:45.436Z,92.64
2022-10-09T05:03:12.675Z,92.86
2022-10-09T05:05:39.218Z,92.91
2022-10-09T05:08:05.975Z,93.13
2022-10-09T05:10:32.720Z,93.15
2022-10-09T05:12:59.740Z,93.29
2022-10-09T05:15:26.483Z,93.15
2022-10-09T05:17:52.927Z,92.26
2022-10-09T05:20:19.260Z,93.45
2022-10-09T05:22:47.084Z,92.66
2022-10-09T05:25:13.983Z,92.42
2022-10-09T05:27:41.379Z,93.28
2022-10-09T05:30:08.883Z,93.59
2022-10-09T05:32:35.319Z,92.93
2022-10-09T05:35:01.748Z,92.61
2022-10-09T05:37:28.167Z,92.71
2022-10-09T05:39:54.595Z,92.25
2022-10-09T05:42:21.027Z,93.13
2022-10-09T05:44:47.376Z,92.64
2022-10-09T05:47:17.714Z,91.79
2022-10-09T05:49:44.046Z,93.03
2022-10-09T05:52:10.698Z,91.92
2022-10-09T05:54:37.027Z,92.47
2022-10-09T05:57:04.681Z,92.55
2022-10-09T05:59:31.065Z,91.82
2022-10-09T06:01:57.449Z,91.84
2022-10-09T06:04:24.965Z,91.73
2022-10-09T06:06:52.052Z,91.03
2022-10-09T06:09:25.273Z,90.93
2022-10-09T06:11:53.413Z,90.99
2022-10-09T06:14:22.154Z,90.75
2022-10-09T06:16:48.955Z,90.63
2022-10-09T06:19:17.372Z,91.01
2022-10-09T06:21:44.611Z,90.70
2022-10-09T06:24:18.252Z,90.81
2022-10-09T06:26:44.693Z,90.86
2022-10-09T06:29:11.031Z,90.18
2022-10-09T06:31:38.781Z,90.51
2022-10-09T06:34:05.222Z,90.14
2022-10-09T06:36:35.828Z,90.27
2022-10-09T06:39:05.548Z,90.93
2022-10-09T06:41:32.173Z,90.43
2022-10-09T06:44:04.694Z,90.78
2022-10-09T06:46:35.940Z,89.86
2022-10-09T06:49:02.755Z,90.32
2022-10-09T06:51:30.224Z,90.49
2022-10-09T06:53:59.128Z,90.64
2022-10-09T06:56:28.580Z,90.55
2022-10-09T06:58:55.306Z,90.08
2022-10-09T07:01:24.609Z,90.12
2022-10-09T07:04:03.651Z,90.46
2022-10-09T07:06:31.704Z,91.20
2022-10-09T07:09:00.167Z,91.11
2022-10-09T07:11:28.982Z,91.20
2022-10-09T07:13:59.440Z,91.11
2022-10-09T07:16:35.028Z,91.34
2022-10-09T07:19:03.803Z,90.70
2022-10-09T07:21:30.375Z,90.80
2022-10-09T07:23:59.643Z,90.33
2022-10-09T07:26:28.566Z,89.60
2022-10-09T07:28:55.703Z,89.39
2022-10-09T07:31:23.098Z,89.43
2022-10-09T07:33:53.527Z,89.48
2022-10-09T07:36:20.308Z,88.87
2022-10-09T07:38:51.421Z,89.44
2022-10-09T07:41:17.763Z,89.39
2022-10-09T07:43:44.137Z,89.37
2022-10-09T07:46:15.558Z,89.45
2022-10-09T07:48:42.055Z,88.35
2022-10-09T07:51:11.605Z,89.20
2022-10-09T07:53:38.480Z,88.69
2022-10-09T07:56:05.767Z,88.30
2022-10-09T07:58:32.508Z,87.80
2022-10-09T08:01:08.778Z,87.51
2022-10-09T08:03:36.740Z,88.00
2022-10-09T08:06:03.204Z,87.96
2022-10-09T08:08:29.732Z,87.35
2022-10-09T08:10:56.207Z,87.90
2022-10-09T08:13:22.602Z,87.70
2022-10-09T08:15:49.146Z,87.43
2022-10-09T08:18:15.845Z,86.78
2022-10-09T08:20:42.204Z,85.85
2022-10-09T08:23:08.702Z,85.25
2022-10-09T08:25:36.598Z,84.20
2022-10-09T08:28:04.098Z,83.78
2022-10-09T08:30:30.637Z,82.69
2022-10-09T08:32:57.109Z,82.50
2022-10-09T08:35:23.517Z,81.08
2022-10-09T08:37:49.912Z,81.73
2022-10-09T08:40:22.696Z,80.34
2022-10-09T08:43:04.739Z,80.03
2022-10-09T08:45:33.655Z,78.81
2022-10-09T08:48:12.214Z,80.20
2022-10-09T08:50:44.793Z,78.39
2022-10-09T08:53:29.959Z,78.14
2022-10-09T08:55:58.588Z,79.02
2022-10-09T08:58:34.454Z,77.33
2022-10-09T09:01:07.962Z,77.93
2022-10-09T09:03:45.594Z,76.96
2022-10-09T09:06:21.176Z,77.48
2022-10-09T09:08:50.521Z,74.20
2022-10-09T09:11:43.931Z,70.82
2022-10-09T09:14:40.124Z,71.22
2022-10-09T09:17:29.823Z,71.89
2022-10-09T09:20:29.218Z,69.40
2022-10-09T09:22:58.936Z,71.23
2022-10-09T09:25:39.558Z,70.60
2022-10-09T09:28:33.875Z,71.12
2022-10-09T09:31:13.173Z,69.62
2022-10-09T09:33:56.315Z,69.06
2022-10-09T09:36:26.402Z,69.48
2022-10-09T09:41:41.190Z,68.38
2022-10-09T09:44:11.256Z,67.24
2022-10-09T09:46:40.075Z,66.07
2022-10-09T09:49:23.423Z,66.60
2022-10-09T09:51:51.256Z,65.73
2022-10-09T09:54:22.382Z,65.84
2022-10-09T09:57:12.102Z,65.78
2022-10-09T09:59:43.142Z,64.58
2022-10-09T10:02:15.230Z,61.93
2022-10-09T10:04:59.203Z,62.46
2022-10-09T10:07:34.270Z,61.39
2022-10-09T10:10:09.891Z,59.51
2022-10-09T10:12:45.458Z,56.06
2022-10-09T10:15:35.318Z,52.90
2022-10-09T10:18:13.008Z,51.88
2022-10-09T10:20:52.574Z,52.20
2022-10-09T10:23:29.890Z,52.96
2022-10-09T10:25:57.801Z,54.20
2022-10-09T10:28:31.224Z,51.32
2022-10-09T10:31:02.343Z,53.74
2022-10-09T10:33:31.239Z,53.61
2022-10-09T10:35:58.990Z,54.81
2022-10-09T10:38:41.303Z,54.97
2022-10-09T10:41:26.151Z,55.45
2022-10-09T10:44:03.762Z,52.40
2022-10-09T10:46:53.156Z,54.74
2022-10-09T10:49:21.308Z,52.10
2022-10-09T10:52:00.776Z,48.81
2022-10-09T10:54:27.087Z,47.97
2022-10-09T10:57:00.884Z,44.49
2022-10-09T10:59:44.423Z,47.50
2022-10-09T11:02:16.388Z,47.87
2022-10-09T11:04:45.707Z,47.98
2022-10-09T11:07:27.245Z,47.76
2022-10-09T11:10:02.768Z,49.67
2022-10-09T11:12:57.793Z,45.28
2022-10-09T11:15:37.740Z,44.36
2022-10-09T11:18:10.996Z,39.75
2022-10-09T11:20:43.297Z,39.00
2022-10-09T11:23:26.822Z,36.70
2022-10-09T11:26:08.768Z,36.52
2022-10-09T11:28:43.243Z,38.74
2022-10-09T11:31:22.773Z,36.63
2022-10-09T11:33:58.229Z,35.09
2022-10-09T11:36:34.451Z,35.06
2022-10-09T11:39:05.266Z,36.02
2022-10-09T11:41:32.144Z,35.55
2022-10-09T11:44:35.052Z,34.79
2022-10-09T11:47:30.893Z,35.38
2022-10-09T11:50:15.300Z,37.95
2022-10-09T11:52:55.970Z,37.21
2022-10-09T11:55:25.009Z,36.02
2022-10-09T11:57:51.849Z,35.33
2022-10-09T12:00:33.724Z,36.16
2022-10-09T12:03:03.839Z,35.73
2022-10-09T12:05:36.434Z,33.57
2022-10-09T12:08:12.051Z,33.32
2022-10-09T12:10:55.426Z,36.11
2022-10-09T12:13:52.509Z,37.74
2022-10-09T12:16:35.733Z,36.71
2022-10-09T12:19:10.965Z,39.94
2022-10-09T12:21:45.980Z,43.59
2022-10-09T12:24:26.171Z,40.50
2022-10-09T12:26:55.531Z,40.84
2022-10-09T12:29:27.612Z,37.76
2022-10-09T12:31:58.335Z,38.74
2022-10-09T12:34:36.413Z,36.32
2022-10-09T12:37:09.389Z,39.69
2022-10-09T12:39:37.442Z,40.31
2022-10-09T12:42:04.640Z,41.19
2022-10-09T12:44:39.832Z,42.60
2022-10-09T12:47:17.577Z,44.95
2022-10-09T12:49:54.504Z,44.92
2022-10-09T12:52:20.839Z,45.25
2022-10-09T12:54:47.191Z,46.23
2022-10-09T12:57:16.231Z,47.80
2022-10-09T12:59:47.708Z,47.09
2022-10-09T13:02:18.356Z,45.73
2022-10-09T13:04:56.818Z,45.58
2022-10-09T13:07:26.311Z,45.40
2022-10-09T13:09:59.200Z,44.50
2022-10-09T13:12:27.528Z,45.97
2022-10-09T13:15:05.260Z,47.66
2022-10-09T13:17:39.574Z,47.43
2022-10-09T13:20:11.911Z,47.15
2022-10-09T13:22:39.678Z,48.98
2022-10-09T13:25:06.675Z,50.04
2022-10-09T13:27:37.880Z,50.82
2022-10-09T13:30:05.547Z,52.30
2022-10-09T13:32:32.302Z,52.46
2022-10-09T13:34:58.732Z,53.84
2022-10-09T13:37:26.517Z,53.92
2022-10-09T13:39:54.307Z,55.75
2022-10-09T13:42:22.727Z,56.02
2022-10-09T13:44:49.136Z,55.75
2022-10-09T13:47:19.647Z,56.73
2022-10-09T13:49:50.183Z,57.33
2022-10-09T13:52:16.598Z,57.96
2022-10-09T13:54:43.073Z,58.13
2022-10-09T13:57:09.511Z,58.29
2022-10-09T13:59:35.952Z,58.59
2022-10-09T14:02:02.356Z,57.84
2022-10-09T14:04:29.506Z,58.66
2022-10-09T14:06:56.023Z,58.48
2022-10-09T14:09:22.531Z,59.51
2022-10-09T14:11:48.974Z,59.24
2022-10-09T14:14:15.474Z,59.65
2022-10-09T14:16:41.956Z,59.17
2022-10-09T14:19:09.624Z,58.28
2022-10-09T14:21:35.999Z,60.27
2022-10-09T14:24:05.000Z,60.23
2022-10-09T14:26:32.415Z,60.84
2022-10-09T14:29:00.561Z,60.84
2022-10-09T14:31:27.304Z,60.12
2022-10-09T14:33:56.831Z,60.55
2022-10-09T14:36:23.574Z,59.83
2022-10-09T14:38:50.612Z,59.73
2022-10-09T14:41:17.911Z,60.05
2022-10-09T14:43:48.426Z,59.98
2022-10-09T14:46:17.268Z,59.49
2022-10-09T14:48:45.198Z,59.13
2022-10-09T14:51:15.067Z,59.97
2022-10-09T14:53:41.545Z,60.43
2022-10-09T14:56:11.459Z,59.68
2022-10-09T14:58:39.333Z,59.38
2022-10-09T15:01:06.484Z,59.52
2022-10-09T15:03:34.747Z,59.92
2022-10-09T15:06:04.092Z,59.55
2022-10-09T15:08:31.545Z,60.52
2022-10-09T15:10:57.979Z,59.62
2022-10-09T15:13:24.449Z,60.53
2022-10-09T15:15:50.868Z,59.98
2022-10-09T15:18:17.293Z,60.49
2022-10-09T15:20:45.283Z,60.23
2022-10-09T15:23:12.527Z,60.00
2022-10-09T15:25:39.070Z,60.36
2022-10-09T15:28:06.763Z,60.70
2022-10-09T15:30:33.144Z,62.26
2022-10-09T15:33:02.988Z,62.45
2022-10-09T15:35:29.451Z,63.02
2022-10-09T15:37:55.985Z,63.30
2022-10-09T15:40:22.331Z,63.82
2022-10-09T15:42:48.963Z,63.12
2022-10-09T15:45:15.711Z,63.64
2022-10-09T15:47:50.811Z,64.19
2022-10-09T15:50:18.092Z,64.82
2022-10-09T15:52:44.528Z,65.21
2022-10-09T15:55:10.882Z,64.96
2022-10-09T15:57:37.214Z,66.14
2022-10-09T16:00:04.256Z,67.05
2022-10-09T16:02:30.707Z,68.22
2022-10-09T16:04:57.079Z,69.14
2022-10-09T16:07:23.470Z,69.34
2022-10-09T16:09:49.986Z,70.23
2022-10-09T16:12:16.318Z,69.69
2022-10-09T16:14:42.752Z,69.29
2022-10-09T16:17:11.442Z,70.53
2022-10-09T16:19:37.925Z,70.25
2022-10-09T16:22:05.691Z,71.52
2022-10-09T16:24:32.320Z,70.36
2022-10-09T16:26:59.338Z,70.35
2022-10-09T16:29:25.731Z,70.12
2022-10-09T16:31:54.826Z,70.19
2022-10-09T16:34:21.246Z,70.30
2022-10-09T16:36:47.598Z,69.96
2022-10-09T16:39:13.943Z,69.05
2022-10-09T16:41:42.102Z,69.41
2022-10-09T16:44:13.866Z,69.71
2022-10-09T16:46:40.367Z,69.95
2022-10-09T16:49:06.839Z,69.57
2022-10-09T16:51:36.052Z,70.25
2022-10-09T16:54:05.821Z,69.35
2022-10-09T16:56:36.228Z,70.03
2022-10-09T16:59:06.601Z,69.30
2022-10-09T17:01:35.894Z,71.12
2022-10-09T17:04:02.280Z,70.20
2022-10-09T17:06:28.727Z,70.41
2022-10-09T17:08:57.623Z,70.90
2022-10-09T17:11:25.612Z,71.56
2022-10-09T17:13:56.476Z,70.31
2022-10-09T17:16:26.604Z,70.60
2022-10-09T17:18:54.322Z,70.28
2022-10-09T17:21:21.227Z,70.85
2022-10-09T17:23:47.872Z,69.74
2022-10-09T17:26:17.164Z,71.21
2022-10-09T17:28:44.369Z,71.40
2022-10-09T17:31:15.611Z,71.85
2022-10-09T17:33:45.749Z,71.98
2022-10-09T17:36:14.138Z,70.37
2022-10-09T17:38:40.522Z,69.98
2022-10-09T17:41:08.796Z,70.33
2022-10-09T17:43:35.218Z,69.93
2022-10-09T17:46:01.727Z,69.58
2022-10-09T17:48:29.582Z,70.15
2022-10-09T17:50:57.806Z,70.99
2022-10-09T17:53:24.918Z,70.20
2022-10-09T17:55:54.222Z,69.54
2022-10-09T17:58:22.816Z,69.38
2022-10-09T18:00:50.376Z,69.41
2022-10-09T18:03:18.352Z,70.37
2022-10-09T18:05:47.620Z,68.50
2022-10-09T18:08:15.822Z,70.70
2022-10-09T18:10:42.408Z,69.55
2022-10-09T18:13:10.006Z,68.40
2022-10-09T18:15:41.800Z,70.36
2022-10-09T18:18:08.819Z,69.83
2022-10-09T18:20:36.528Z,68.96
2022-10-09T18:23:03.476Z,68.61
2022-10-09T18:25:30.129Z,68.46
2022-10-09T18:27:56.673Z,68.36
2022-10-09T18:30:23.414Z,68.70
2022-10-09T18:32:49.932Z,69.91
2022-10-09T18:35:16.626Z,68.32
2022-10-09T18:37:42.962Z,68.94
2022-10-09T18:40:09.888Z,70.15
2022-10-09T18:42:36.298Z,68.57
2022-10-09T18:45:03.181Z,68.72
2022-10-09T18:47:33.448Z,69.58
2022-10-09T18:50:05.676Z,69.40
2022-10-09T18:52:32.081Z,68.99
2022-10-09T18:54:58.663Z,70.10
2022-10-09T18:57:26.447Z,71.00
2022-10-09T18:59:55.478Z,70.40
2022-10-09T19:02:26.150Z,69.99
2022-10-09T19:04:55.840Z,71.08
2022-10-09T19:07:22.409Z,70.68
2022-10-09T19:09:53.597Z,72.17
2022-10-09T19:12:22.816Z,70.33
2022-10-09T19:14:49.410Z,71.18
2022-10-09T19:17:15.979Z,72.24
2022-10-09T19:19:42.282Z,71.94
2022-10-09T19:22:10.664Z,71.81
2022-10-09T19:24:40.522Z,70.82
2022-10-09T19:27:07.003Z,71.58
2022-10-09T19:29:33.474Z,72.33
2022-10-09T19:31:59.898Z,73.40
2022-10-09T19:34:26.360Z,73.37
2022-10-09T19:36:52.824Z,73.35
2022-10-09T19:39:20.135Z,74.19
2022-10-09T19:41:48.616Z,74.43
2022-10-09T19:44:15.544Z,74.81
2022-10-09T19:46:41.990Z,75.12
2022-10-09T19:49:09.220Z,74.92
2022-10-09T19:51:36.924Z,74.71
2022-10-09T19:54:06.979Z,74.96
2022-10-09T19:56:34.506Z,75.08
2022-10-09T19:59:03.879Z,75.90
2022-10-09T20:01:32.679Z,76.47
2022-10-09T20:04:04.767Z,76.02
2022-10-09T20:06:31.453Z,76.42
2022-10-09T20:08:57.780Z,77.00
2022-10-09T20:11:26.132Z,76.54
2022-10-09T20:13:55.997Z,77.25
2022-10-09T20:16:24.114Z,76.91
2022-10-09T20:18:51.575Z,77.28
2022-10-09T20:21:18.325Z,76.70
2022-10-09T20:23:44.879Z,77.74
2022-10-09T20:26:14.707Z,77.93
2022-10-09T20:28:42.300Z,78.10
2022-10-09T20:31:14.500Z,77.93
2022-10-09T20:33:42.182Z,78.27
2022-10-09T20:36:17.321Z,78.57
2022-10-09T20:38:43.670Z,78.99
2022-10-09T20:41:09.997Z,79.43
2022-10-09T20:43:37.259Z,79.50
2022-10-09T20:46:13.348Z,79.47
2022-10-09T20:48:41.014Z,79.29
2022-10-09T20:51:07.448Z,79.95
2022-10-09T20:53:34.169Z,79.86
2022-10-09T20:56:06.635Z,79.39
2022-10-09T20:58:34.155Z,79.15
2022-10-09T21:01:03.218Z,79.07
2022-10-09T21:03:29.612Z,79.62
2022-10-09T21:05:55.980Z,79.46
2022-10-09T21:08:22.422Z,80.19
2022-10-09T21:10:50.251Z,80.27
2022-10-09T21:13:16.939Z,79.67
2022-10-09T21:15:48.285Z,80.42
2022-10-09T21:18:16.460Z,80.00
2022-10-09T21:20:44.640Z,79.80
2022-10-09T21:23:12.624Z,79.49
2022-10-09T21:25:45.771Z,79.88
2022-10-09T21:28:12.164Z,80.13
2022-10-09T21:30:41.476Z,79.48
2022-10-09T21:33:08.514Z,79.23
2022-10-09T21:35:39.339Z,79.40
2022-10-09T21:38:05.851Z,78.94
2022-10-09T21:40:32.248Z,78.83
2022-10-09T21:42:58.875Z,79.96
2022-10-09T21:45:25.210Z,79.42
2022-10-09T21:47:51.570Z,80.00
2022-10-09T21:50:17.892Z,79.00
2022-10-09T21:52:44.219Z,79.45
2022-10-09T21:55:10.659Z,79.12
2022-10-09T21:57:37.016Z,78.92
2022-10-09T22:00:04.737Z,78.33
2022-10-09T22:02:31.416Z,78.61
2022-10-09T22:04:57.755Z,79.24
2022-10-09T22:07:26.305Z,77.62
2022-10-09T22:09:53.288Z,78.10
2022-10-09T22:12:19.724Z,78.92
2022-10-09T22:14:46.347Z,77.88
2022-10-09T22:17:12.765Z,78.63
2022-10-09T22:19:39.159Z,79.88
2022-10-09T22:22:05.550Z,78.92
2022-10-09T22:24:32.130Z,78.89
2022-10-09T22:26:59.053Z,77.74
2022-10-09T22:29:26.651Z,78.31
2022-10-09T22:31:53.640Z,78.24
2022-10-09T22:34:19.981Z,77.82
2022-10-09T22:36:46.614Z,78.20
2022-10-09T22:39:12.986Z,78.11
2022-10-09T22:41:39.938Z,77.83
2022-10-09T22:44:08.305Z,78.17
2022-10-09T22:46:38.225Z,77.65
2022-10-09T22:49:06.105Z,77.98
2022-10-09T22:51:32.553Z,77.31
2022-10-09T22:54:00.061Z,77.35
2022-10-09T22:56:46.447Z,76.98
2022-10-09T22:59:15.816Z,77.58
2022-10-09T23:01:53.279Z,77.77
2022-10-09T23:04:20.769Z,77.08
2022-10-09T23:06:53.989Z,77.49
2022-10-09T23:09:22.040Z,78.46
2022-10-09T23:11:48.784Z,77.56
2022-10-09T23:14:15.355Z,76.81
2022-10-09T23:16:42.914Z,76.87
2022-10-09T23:19:10.360Z,77.04
2022-10-09T23:21:39.707Z,77.14
2022-10-09T23:24:07.766Z,77.56
2022-10-09T23:26:35.515Z,76.99
2022-10-09T23:29:08.500Z,77.29
2022-10-09T23:31:35.857Z,76.80
2022-10-09T23:34:03.928Z,76.57
2022-10-09T23:36:30.715Z,76.22
2022-10-09T23:38:58.063Z,76.90
2022-10-09T23:41:26.478Z,76.97
2022-10-09T23:43:53.407Z,76.68
2022-10-09T23:46:24.473Z,77.25
2022-10-09T23:48:51.172Z,77.90
2022-10-09T23:51:18.965Z,78.63
2022-10-09T23:53:46.489Z,79.69
2022-10-09T23:56:18.870Z,80.06
2022-10-09T23:58:46.247Z,79.70
